Ana Sayfa
METAR-TAF:

METAR-TAF

Havaalanları :

Port Harcourt, Nijerya

Enlem: 04-51N, Boylam: 007-01E, yükseklik: 18 m

Güncel hava durumu gözlemi

Rapor saat 19:00 UTC de 6 saat ve 12 dakika önce yapıldı.
Rüzgar güneydan 4 kt
Sıcaklık 24°C
Nem 89%
Basınç 1015 hPa
Görüş mesafesi: 8000 m
800 ft yükseklikte parçalı çok bulutlu
2000 ft yükseklikte az bulutlu, Kümülonimbus.
hafif çisenti

METAR: DNPO 231900Z 17004KT 8000 -DZ BKN008 FEW020CB 24/22 Q1015 NOSIG

Saat: 02:12 (01:12 UTC)


TAF: eksik

4.000'den fazla havaalanı için hava durumu gözlemleri ve tahminleri (METAR ve TAF raporları).

Kullanılabilir istasyonlar harita üzerinde sarı ve kırmızı noktalarla gösterilir.

İstasyonun adını görmek için fareyi noktanın üzerinde gezdirin.

Sonrasında hava gözlem ve tahminlerini görmek için tıklayın.

Haritayı değiştirmek için: yaklaştırmak için siyah artı işaretli yeşil düğmeye ve uzaklaştırmak için de eksi işaretli düğmeye hızla tıklayın; bitişik haritalar için yeşil okları kullanın.


METAR-TAF: